Time;durP1;ratioP1;P1;durP2;ratioP2;P2;SDS_P1;SDS_P2;PMS_P1;PMS_P2;Temp;Humidity;BMP_temperature;BMP_pressure;BME280_temperature;BME280_humidity;BME280_pressure;Samples;Min_cycle;Max_cycle;Signal;HPM_P1;HPM_P2
2021/08/22 00:00:42;;;;;;;;;;;;;;;;;;5019870;28;19940;-69
2021/08/22 00:03:09;;;;;;;;;;;;;;;;;;5021712;28;19928;-70
2021/08/22 00:05:36;;;;;;;;;;;;;;;;;;5023078;28;19925;-68
2021/08/22 00:08:03;;;;;;;;;;;;;;;;;;5021224;28;19925;-68
2021/08/22 00:10:30;;;;;;;;;;;;;;;;;;5018340;28;19979;-69
2021/08/22 00:12:57;;;;;;;;;;;;;;;;;;5020757;28;20366;-68
2021/08/22 00:15:24;;;;;;;;;;;;;;;;;;5019009;28;20031;-68
2021/08/22 00:17:50;;;;;;;;;;;;;;;;;;5016593;28;19933;-69
2021/08/22 00:20:20;;;;;;;;;;;;;;;;;;5016687;28;19936;-69
2021/08/22 00:22:47;;;;;;;;;;;;;;;;;;5019243;28;19925;-69
2021/08/22 00:25:14;;;;;;;;;;;;;;;;;;5018430;28;20509;-68
2021/08/22 00:27:41;;;;;;;;;;;;;;;;;;5017773;28;19991;-68
2021/08/22 00:30:08;;;;;;;;;;;;;;;;;;5014902;28;19929;-68
2021/08/22 00:32:35;;;;;;;;;;;;;;;;;;5018038;28;19925;-68
2021/08/22 00:35:02;;;;;;;;;;;;;;;;;;5018767;28;20316;-69
2021/08/22 00:37:29;;;;;;;;;;;;;;;;;;5017541;28;21593;-68
2021/08/22 00:39:56;;;;;;;;;;;;;;;;;;5016003;28;19925;-68
2021/08/22 00:42:23;;;;;;;;;;;;;;;;;;5018530;28;19933;-67
2021/08/22 00:44:50;;;;;;;;;;;;;;;;;;5022749;28;19925;-69
2021/08/22 00:47:17;;;;;;;;;;;;;;;;;;5020345;28;20378;-68
2021/08/22 00:49:44;;;;;;;;;;;;;;;;;;5022705;28;19933;-69
2021/08/22 00:52:11;;;;;;;;;;;;;;;;;;5022569;28;19933;-68
2021/08/22 00:54:38;;;;;;;;;;;;;;;;;;5024078;28;19925;-69
2021/08/22 00:57:05;;;;;;;;;;;;;;;;;;5031457;28;19936;-69
2021/08/22 00:59:32;;;;;;;;;;;;;;;;;;5033166;28;20301;-69
2021/08/22 01:01:59;;;;;;;;;;;;;;;;;;5038206;28;19929;-69
2021/08/22 01:04:26;;;;;;;;;;;;;;;;;;5019648;28;20595;-68
2021/08/22 01:06:53;;;;;;;;;;;;;;;;;;5023048;28;20297;-69
2021/08/22 01:09:20;;;;;;;;;;;;;;;;;;5020138;28;19929;-69
2021/08/22 01:11:47;;;;;;;;;;;;;;;;;;5020446;28;21100;-69
2021/08/22 01:14:14;;;;;;;;;;;;;;;;;;5019741;28;19929;-69
2021/08/22 01:16:41;;;;;;;;;;;;;;;;;;5019963;28;20132;-68
2021/08/22 01:19:08;;;;;;;;;;;;;;;;;;5018020;28;19934;-69
2021/08/22 01:21:35;;;;;;;;;;;;;;;;;;5022454;28;19932;-68
2021/08/22 01:24:02;;;;;;;;;;;;;;;;;;5018473;28;19933;-69
2021/08/22 01:26:29;;;;;;;;;;;;;;;;;;5018951;28;19933;-68
2021/08/22 01:28:56;;;;;;;;;;;;;;;;;;5019763;28;19933;-68
2021/08/22 01:31:23;;;;;;;;;;;;;;;;;;5021064;28;19941;-68
2021/08/22 01:33:51;;;;;;;;;;;;;;;;;;5019600;28;19929;-69
2021/08/22 01:36:18;;;;;;;;;;;;;;;;;;5016665;28;20845;-68
2021/08/22 01:38:45;;;;;;;;;;;;;;;;;;5019114;28;20308;-69
2021/08/22 01:41:12;;;;;;;;;;;;;;;;;;5019312;28;19929;-68
2021/08/22 01:43:39;;;;;;;;;;;;;;;;;;5019005;28;19940;-68
2021/08/22 01:46:06;;;;;;;;;;;;;;;;;;5020953;28;19925;-68
2021/08/22 01:48:33;;;;;;;;;;;;;;;;;;5020482;28;19971;-68
2021/08/22 01:51:00;;;;;;;;;;;;;;;;;;5021742;28;20316;-68
2021/08/22 01:53:27;;;;;;;;;;;;;;;;;;5016069;28;19964;-69
2021/08/22 01:55:54;;;;;;;;;;;;;;;;;;5017485;28;19925;-67
2021/08/22 01:58:21;;;;;;;;;;;;;;;;;;5024344;28;19925;-68
2021/08/22 02:00:48;;;;;;;;;;;;;;;;;;5023746;28;20311;-68
2021/08/22 02:03:15;;;;;;;;;;;;;;;;;;5020081;28;19925;-69
2021/08/22 02:05:42;;;;;;;;;;;;;;;;;;5018901;28;19933;-68
2021/08/22 02:08:09;;;;;;;;;;;;;;;;;;5019927;28;20286;-68
2021/08/22 02:10:36;;;;;;;;;;;;;;;;;;5028640;28;19932;-65
2021/08/22 02:13:03;;;;;;;;;;;;;;;;;;5023723;28;19933;-68
2021/08/22 02:15:30;;;;;;;;;;;;;;;;;;5022388;28;19933;-67
2021/08/22 02:17:57;;;;;;;;;;;;;;;;;;5019259;28;19945;-69
2021/08/22 02:20:24;;;;;;;;;;;;;;;;;;5019158;28;19929;-67
2021/08/22 02:22:51;;;;;;;;;;;;;;;;;;5016792;28;20095;-68
2021/08/22 02:25:18;;;;;;;;;;;;;;;;;;5017206;28;20027;-68
2021/08/22 02:27:45;;;;;;;;;;;;;;;;;;5020980;28;19964;-66
2021/08/22 02:30:12;;;;;;;;;;;;;;;;;;5020256;28;19925;-69
2021/08/22 02:32:39;;;;;;;;;;;;;;;;;;5018348;28;19945;-69
2021/08/22 02:35:06;;;;;;;;;;;;;;;;;;5020748;28;19933;-66
2021/08/22 02:37:33;;;;;;;;;;;;;;;;;;5017044;28;20031;-68
2021/08/22 02:40:00;;;;;;;;;;;;;;;;;;5017998;28;20108;-68
2021/08/22 02:42:27;;;;;;;;;;;;;;;;;;5018518;28;20479;-67
2021/08/22 02:44:54;;;;;;;;;;;;;;;;;;5013943;28;19936;-68
2021/08/22 02:47:21;;;;;;;;;;;;;;;;;;5020095;28;19925;-67
2021/08/22 02:49:48;;;;;;;;;;;;;;;;;;5018353;28;19933;-68
2021/08/22 02:52:15;;;;;;;;;;;;;;;;;;5017502;28;20511;-68
2021/08/22 02:54:42;;;;;;;;;;;;;;;;;;5016841;28;19999;-68
2021/08/22 02:57:09;;;;;;;;;;;;;;;;;;5018194;28;19940;-68
2021/08/22 02:59:36;;;;;;;;;;;;;;;;;;5019714;28;19944;-68
2021/08/22 03:02:03;;;;;;;;;;;;;;;;;;5018563;28;19925;-67
2021/08/22 03:04:30;;;;;;;;;;;;;;;;;;5021694;28;20278;-67
2021/08/22 03:06:57;;;;;;;;;;;;;;;;;;5015957;28;19948;-68
2021/08/22 03:09:24;;;;;;;;;;;;;;;;;;5017809;28;19933;-68
2021/08/22 03:11:51;;;;;;;;;;;;;;;;;;5015568;28;19932;-69
2021/08/22 03:14:18;;;;;;;;;;;;;;;;;;5020550;28;19925;-67
2021/08/22 03:16:45;;;;;;;;;;;;;;;;;;5012908;28;19934;-68
2021/08/22 03:19:12;;;;;;;;;;;;;;;;;;5019543;28;19932;-69
2021/08/22 03:21:41;;;;;;;;;;;;;;;;;;5019858;28;19929;-69
2021/08/22 03:24:08;;;;;;;;;;;;;;;;;;5019423;28;19933;-66
2021/08/22 03:26:35;;;;;;;;;;;;;;;;;;5018110;28;19929;-67
2021/08/22 03:29:02;;;;;;;;;;;;;;;;;;5021798;28;20466;-69
2021/08/22 03:31:29;;;;;;;;;;;;;;;;;;5019344;28;19933;-67
2021/08/22 03:33:56;;;;;;;;;;;;;;;;;;5021899;28;19932;-67
2021/08/22 03:36:23;;;;;;;;;;;;;;;;;;5025045;28;19933;-67
2021/08/22 03:38:50;;;;;;;;;;;;;;;;;;5024659;28;20404;-67
2021/08/22 03:41:17;;;;;;;;;;;;;;;;;;5043436;22;20312;-72
2021/08/22 03:43:44;;;;;;;;;;;;;;;;;;5046048;28;19972;-73
2021/08/22 03:46:11;;;;;;;;;;;;;;;;;;5042961;28;20331;-70
2021/08/22 03:48:38;;;;;;;;;;;;;;;;;;5044667;28;20544;-69
2021/08/22 03:51:05;;;;;;;;;;;;;;;;;;5042908;28;19940;-69
2021/08/22 03:53:32;;;;;;;;;;;;;;;;;;5027377;28;19925;-68
2021/08/22 03:55:59;;;;;;;;;;;;;;;;;;5027299;28;20328;-69
2021/08/22 03:58:26;;;;;;;;;;;;;;;;;;5024051;28;19956;-71
2021/08/22 04:00:53;;;;;;;;;;;;;;;;;;5022985;28;19937;-69
2021/08/22 04:03:20;;;;;;;;;;;;;;;;;;5020078;28;19925;-72
2021/08/22 04:05:47;;;;;;;;;;;;;;;;;;5018721;28;19932;-70
2021/08/22 04:08:14;;;;;;;;;;;;;;;;;;5023300;28;19951;-74
2021/08/22 04:10:41;;;;;;;;;;;;;;;;;;5019929;28;19940;-69
2021/08/22 04:13:08;;;;;;;;;;;;;;;;;;5017651;28;21328;-68
2021/08/22 04:15:35;;;;;;;;;;;;;;;;;;5014557;28;19932;-69
2021/08/22 04:18:02;;;;;;;;;;;;;;;;;;5019518;28;19929;-70
2021/08/22 04:20:29;;;;;;;;;;;;;;;;;;5018208;28;19943;-69
2021/08/22 04:22:56;;;;;;;;;;;;;;;;;;5024093;28;19940;-69
2021/08/22 04:25:23;;;;;;;;;;;;;;;;;;5023623;28;20495;-70
2021/08/22 04:27:50;;;;;;;;;;;;;;;;;;5023699;28;20289;-68
2021/08/22 04:30:17;;;;;;;;;;;;;;;;;;5024523;28;19925;-72
2021/08/22 04:32:44;;;;;;;;;;;;;;;;;;5017465;28;19929;-70
2021/08/22 04:35:11;;;;;;;;;;;;;;;;;;5023444;28;19925;-70
2021/08/22 04:37:38;;;;;;;;;;;;;;;;;;5022616;28;20010;-70
2021/08/22 04:40:05;;;;;;;;;;;;;;;;;;5023019;28;19976;-72
2021/08/22 04:42:32;;;;;;;;;;;;;;;;;;5018955;28;19932;-72
2021/08/22 04:45:00;;;;;;;;;;;;;;;;;;5020379;28;19932;-70
2021/08/22 04:47:26;;;;;;;;;;;;;;;;;;5021243;28;20029;-69
2021/08/22 04:49:54;;;;;;;;;;;;;;;;;;5018975;28;19933;-71
2021/08/22 04:52:21;;;;;;;;;;;;;;;;;;5021281;28;20020;-70
2021/08/22 04:54:48;;;;;;;;;;;;;;;;;;5017280;28;20044;-69
2021/08/22 04:57:15;;;;;;;;;;;;;;;;;;5023384;28;19932;-72
2021/08/22 04:59:42;;;;;;;;;;;;;;;;;;5018130;28;19933;-71
2021/08/22 05:02:09;;;;;;;;;;;;;;;;;;5020210;28;20419;-69
2021/08/22 05:04:36;;;;;;;;;;;;;;;;;;5020173;28;19925;-74
2021/08/22 05:07:05;;;;;;;;;;;;;;;;;;5020307;28;19933;-69
2021/08/22 05:09:32;;;;;;;;;;;;;;;;;;5022914;28;19944;-69
2021/08/22 05:11:59;;;;;;;;;;;;;;;;;;5021798;28;20042;-68
2021/08/22 05:14:26;;;;;;;;;;;;;;;;;;5018626;28;20344;-69
2021/08/22 05:16:53;;;;;;;;;;;;;;;;;;5018078;28;19933;-69
2021/08/22 05:19:20;;;;;;;;;;;;;;;;;;5020236;28;19925;-69
2021/08/22 05:21:47;;;;;;;;;;;;;;;;;;5024504;28;19933;-73
2021/08/22 05:24:14;;;;;;;;;;;;;;;;;;5019702;28;20084;-75
2021/08/22 05:26:41;;;;;;;;;;;;;;;;;;5017343;28;19932;-68
2021/08/22 05:29:08;;;;;;;;;;;;;;;;;;5028392;28;19932;-69
2021/08/22 05:31:35;;;;;;;;;;;;;;;;;;5029478;28;19955;-70
2021/08/22 05:34:02;;;;;;;;;;;;;;;;;;5029752;28;20369;-69
2021/08/22 05:36:29;;;;;;;;;;;;;;;;;;5026662;28;19933;-69
2021/08/22 05:38:56;;;;;;;;;;;;;;;;;;5026921;28;19925;-70
2021/08/22 05:41:23;;;;;;;;;;;;;;;;;;5028326;28;19935;-70
2021/08/22 05:43:50;;;;;;;;;;;;;;;;;;5029486;28;19926;-69
2021/08/22 05:46:17;;;;;;;;;;;;;;;;;;5024155;28;19925;-72
2021/08/22 05:48:44;;;;;;;;;;;;;;;;;;5026543;28;20875;-69
2021/08/22 05:51:11;;;;;;;;;;;;;;;;;;5023180;28;19929;-70
2021/08/22 05:53:41;;;;;;;;;;;;;;;;;;5025236;28;19925;-69
2021/08/22 05:56:08;;;;;;;;;;;;;;;;;;5025744;28;19944;-72
2021/08/22 05:58:35;;;;;;;;;;;;;;;;;;5023436;28;19955;-72
2021/08/22 06:01:02;;;;;;;;;;;;;;;;;;5023297;28;19925;-72
2021/08/22 06:03:29;;;;;;;;;;;;;;;;;;5028634;28;20339;-72
2021/08/22 06:05:56;;;;;;;;;;;;;;;;;;5029680;28;20301;-71
2021/08/22 06:08:23;;;;;;;;;;;;;;;;;;5024180;28;19936;-71
2021/08/22 06:10:50;;;;;;;;;;;;;;;;;;5026794;28;19926;-74
2021/08/22 06:13:17;;;;;;;;;;;;;;;;;;5026640;28;19932;-70
2021/08/22 06:15:44;;;;;;;;;;;;;;;;;;5023485;28;21528;-69
2021/08/22 06:18:11;;;;;;;;;;;;;;;;;;5029873;28;20461;-68
2021/08/22 06:20:38;;;;;;;;;;;;;;;;;;5022306;28;19933;-69
2021/08/22 06:23:05;;;;;;;;;;;;;;;;;;5023149;28;19925;-69
2021/08/22 06:25:32;;;;;;;;;;;;;;;;;;5022782;28;19933;-69
2021/08/22 06:27:58;;;;;;;;;;;;;;;;;;5020603;28;20024;-69
2021/08/22 06:30:25;;;;;;;;;;;;;;;;;;5021949;28;19929;-69
2021/08/22 06:32:52;;;;;;;;;;;;;;;;;;5024850;28;20012;-69
2021/08/22 06:35:19;;;;;;;;;;;;;;;;;;5022667;28;19932;-69
2021/08/22 06:37:46;;;;;;;;;;;;;;;;;;5020598;28;19929;-69
2021/08/22 06:40:13;;;;;;;;;;;;;;;;;;5025777;28;19929;-70
2021/08/22 06:42:40;;;;;;;;;;;;;;;;;;5024711;28;20405;-67
2021/08/22 06:45:07;;;;;;;;;;;;;;;;;;5022163;28;19947;-70
2021/08/22 06:47:34;;;;;;;;;;;;;;;;;;5023352;28;19933;-70
2021/08/22 06:50:01;;;;;;;;;;;;;;;;;;5022349;28;19925;-68
2021/08/22 06:52:28;;;;;;;;;;;;;;;;;;5021105;28;20819;-68
2021/08/22 06:54:55;;;;;;;;;;;;;;;;;;5024305;28;19925;-69
2021/08/22 06:57:22;;;;;;;;;;;;;;;;;;5021207;28;19929;-67
2021/08/22 06:59:50;;;;;;;;;;;;;;;;;;5022814;28;19929;-69
2021/08/22 07:02:17;;;;;;;;;;;;;;;;;;5021659;28;19932;-71
2021/08/22 07:04:44;;;;;;;;;;;;;;;;;;5020599;28;19933;-70
2021/08/22 07:07:11;;;;;;;;;;;;;;;;;;5019072;28;20672;-68
2021/08/22 07:09:38;;;;;;;;;;;;;;;;;;5020644;28;19936;-68
2021/08/22 07:12:05;;;;;;;;;;;;;;;;;;5024754;28;20020;-69
2021/08/22 07:14:32;;;;;;;;;;;;;;;;;;5022066;28;19925;-67
2021/08/22 07:16:59;;;;;;;;;;;;;;;;;;5020647;28;19932;-69
2021/08/22 07:19:27;;;;;;;;;;;;;;;;;;5018723;28;20393;-68
2021/08/22 07:21:54;;;;;;;;;;;;;;;;;;5018909;28;20079;-68
2021/08/22 07:24:22;;;;;;;;;;;;;;;;;;5022198;28;19926;-67
2021/08/22 07:26:49;;;;;;;;;;;;;;;;;;5021903;28;20400;-68
2021/08/22 07:29:16;;;;;;;;;;;;;;;;;;5020114;28;19933;-68
2021/08/22 07:31:42;;;;;;;;;;;;;;;;;;5020688;28;19925;-69
2021/08/22 07:34:09;;;;;;;;;;;;;;;;;;5023540;28;19926;-67
2021/08/22 07:36:36;;;;;;;;;;;;;;;;;;5019847;28;19961;-67
2021/08/22 07:39:03;;;;;;;;;;;;;;;;;;5024840;28;19939;-68
2021/08/22 07:41:30;;;;;;;;;;;;;;;;;;5023297;28;20002;-68
2021/08/22 07:43:57;;;;;;;;;;;;;;;;;;5022586;28;19952;-69
2021/08/22 07:46:24;;;;;;;;;;;;;;;;;;5022244;28;19935;-68
2021/08/22 07:48:51;;;;;;;;;;;;;;;;;;5019988;28;19935;-67
2021/08/22 07:51:18;;;;;;;;;;;;;;;;;;5014238;28;19937;-69
2021/08/22 07:53:45;;;;;;;;;;;;;;;;;;5024134;28;19937;-68
2021/08/22 07:56:12;;;;;;;;;;;;;;;;;;5023733;28;19945;-68
2021/08/22 07:58:39;;;;;;;;;;;;;;;;;;5020925;28;19929;-68
2021/08/22 08:01:06;;;;;;;;;;;;;;;;;;5019629;28;20334;-69
2021/08/22 08:03:33;;;;;;;;;;;;;;;;;;5018730;28;20246;-68
2021/08/22 08:06:00;;;;;;;;;;;;;;;;;;5015939;28;19940;-71
2021/08/22 08:08:27;;;;;;;;;;;;;;;;;;5020180;28;20000;-71
2021/08/22 08:10:54;;;;;;;;;;;;;;;;;;5017346;28;19964;-70
2021/08/22 08:13:21;;;;;;;;;;;;;;;;;;5018200;28;20490;-69
2021/08/22 08:15:48;;;;;;;;;;;;;;;;;;5021999;28;19925;-69
2021/08/22 08:18:15;;;;;;;;;;;;;;;;;;5020434;28;19929;-69
2021/08/22 08:20:42;;;;;;;;;;;;;;;;;;5019688;28;19932;-68
2021/08/22 08:23:09;;;;;;;;;;;;;;;;;;5018838;28;19933;-70
2021/08/22 08:25:36;;;;;;;;;;;;;;;;;;5020800;28;20056;-69
2021/08/22 08:28:03;;;;;;;;;;;;;;;;;;5025715;28;20533;-69
2021/08/22 08:30:30;;;;;;;;;;;;;;;;;;5023257;28;19925;-69
2021/08/22 08:32:57;;;;;;;;;;;;;;;;;;5022094;28;19935;-68
2021/08/22 08:35:24;;;;;;;;;;;;;;;;;;5019475;28;20296;-68
2021/08/22 08:37:51;;;;;;;;;;;;;;;;;;5026607;28;19929;-69
2021/08/22 08:40:18;;;;;;;;;;;;;;;;;;5021586;28;19935;-69
2021/08/22 08:42:45;;;;;;;;;;;;;;;;;;5024047;28;20027;-68
2021/08/22 08:45:11;;;;;;;;;;;;;;;;;;5024186;28;19931;-69
2021/08/22 08:47:38;;;;;;;;;;;;;;;;;;5023995;28;19928;-68
2021/08/22 08:50:05;;;;;;;;;;;;;;;;;;5023417;28;19929;-69
2021/08/22 08:52:33;;;;;;;;;;;;;;;;;;5023940;28;20032;-68
2021/08/22 08:55:05;;;;;;;;;;;;;;;;;;5023016;28;19933;-68
2021/08/22 08:57:32;;;;;;;;;;;;;;;;;;5024734;28;20290;-68
2021/08/22 08:59:59;;;;;;;;;;;;;;;;;;5028510;28;20056;-70
2021/08/22 09:02:26;;;;;;;;;;;;;;;;;;5022898;28;19925;-68
2021/08/22 09:04:53;;;;;;;;;;;;;;;;;;5026247;28;19929;-68
2021/08/22 09:07:20;;;;;;;;;;;;;;;;;;5027280;28;19976;-70
2021/08/22 09:09:47;;;;;;;;;;;;;;;;;;5027974;28;19931;-68
2021/08/22 09:12:15;;;;;;;;;;;;;;;;;;5024132;28;19933;-68
2021/08/22 09:14:43;;;;;;;;;;;;;;;;;;5024034;28;19940;-69
2021/08/22 09:17:10;;;;;;;;;;;;;;;;;;5028592;28;19932;-71
2021/08/22 09:19:38;;;;;;;;;;;;;;;;;;5022815;28;19925;-69
2021/08/22 09:22:05;;;;;;;;;;;;;;;;;;5024761;28;20162;-68
2021/08/22 09:24:32;;;;;;;;;;;;;;;;;;5023842;28;19968;-68
2021/08/22 09:26:59;;;;;;;;;;;;;;;;;;5029711;28;19925;-68
2021/08/22 09:29:26;;;;;;;;;;;;;;;;;;5030149;28;20207;-69
2021/08/22 09:31:53;;;;;;;;;;;;;;;;;;5026941;28;19932;-67
2021/08/22 09:34:20;;;;;;;;;;;;;;;;;;5028972;28;20305;-70
2021/08/22 09:36:47;;;;;;;;;;;;;;;;;;5029011;28;19925;-69
2021/08/22 09:39:14;;;;;;;;;;;;;;;;;;5026600;28;19933;-69
2021/08/22 09:41:41;;;;;;;;;;;;;;;;;;5040998;22;19929;-66
2021/08/22 09:44:08;;;;;;;;;;;;;;;;;;5029817;28;19961;-68
2021/08/22 09:46:35;;;;;;;;;;;;;;;;;;5027653;28;19939;-67
2021/08/22 09:49:02;;;;;;;;;;;;;;;;;;5026685;28;19936;-68
2021/08/22 09:51:29;;;;;;;;;;;;;;;;;;5025862;28;20020;-67
2021/08/22 09:53:56;;;;;;;;;;;;;;;;;;5029466;28;20377;-68
2021/08/22 09:56:23;;;;;;;;;;;;;;;;;;5029194;28;19929;-69
2021/08/22 09:58:50;;;;;;;;;;;;;;;;;;5026576;28;21644;-68
2021/08/22 10:01:17;;;;;;;;;;;;;;;;;;5025741;28;20015;-68
2021/08/22 10:03:44;;;;;;;;;;;;;;;;;;5026771;28;21067;-68
2021/08/22 10:06:11;;;;;;;;;;;;;;;;;;5027188;28;19968;-68
2021/08/22 10:08:40;;;;;;;;;;;;;;;;;;5030734;28;20012;-68
2021/08/22 10:11:07;;;;;;;;;;;;;;;;;;5028093;28;19944;-68
2021/08/22 10:13:34;;;;;;;;;;;;;;;;;;5026268;28;19925;-69
2021/08/22 10:16:01;;;;;;;;;;;;;;;;;;5026836;28;20015;-69
2021/08/22 10:18:28;;;;;;;;;;;;;;;;;;5029863;28;19932;-69
2021/08/22 10:20:55;;;;;;;;;;;;;;;;;;5028194;28;19925;-69
2021/08/22 10:23:22;;;;;;;;;;;;;;;;;;5028730;28;19943;-69
2021/08/22 10:25:50;;;;;;;;;;;;;;;;;;5028086;28;19933;-70
2021/08/22 10:28:17;;;;;;;;;;;;;;;;;;5025610;28;19925;-68
2021/08/22 10:30:45;;;;;;;;;;;;;;;;;;5026797;28;19933;-68
2021/08/22 10:33:12;;;;;;;;;;;;;;;;;;5028459;28;19975;-66
2021/08/22 10:35:40;;;;;;;;;;;;;;;;;;5025805;28;19931;-67
2021/08/22 10:38:07;;;;;;;;;;;;;;;;;;5026920;28;19929;-66
2021/08/22 10:40:34;;;;;;;;;;;;;;;;;;5026337;28;19933;-68
2021/08/22 10:43:02;;;;;;;;;;;;;;;;;;5024454;28;19925;-68
2021/08/22 10:45:29;;;;;;;;;;;;;;;;;;5025941;28;19929;-69
2021/08/22 10:47:56;;;;;;;;;;;;;;;;;;5027218;28;19929;-69
2021/08/22 10:50:23;;;;;;;;;;;;;;;;;;5023224;28;19925;-67
2021/08/22 10:52:50;;;;;;;;;;;;;;;;;;5025507;28;20289;-67
2021/08/22 10:55:18;;;;;;;;;;;;;;;;;;5027345;28;19971;-67
2021/08/22 10:57:45;;;;;;;;;;;;;;;;;;5033624;28;19929;-68
2021/08/22 11:00:12;;;;;;;;;;;;;;;;;;5033419;28;20296;-68
2021/08/22 11:02:39;;;;;;;;;;;;;;;;;;5034708;28;19931;-70
2021/08/22 11:05:06;;;;;;;;;;;;;;;;;;5029562;28;20324;-69
2021/08/22 11:07:33;;;;;;;;;;;;;;;;;;5028851;28;19929;-67
2021/08/22 11:10:00;;;;;;;;;;;;;;;;;;5023468;28;19929;-69
2021/08/22 11:12:27;;;;;;;;;;;;;;;;;;5026021;28;19929;-67
2021/08/22 11:14:54;;;;;;;;;;;;;;;;;;5026565;28;19936;-69
2021/08/22 11:17:21;;;;;;;;;;;;;;;;;;5027253;28;20292;-68
2021/08/22 11:19:48;;;;;;;;;;;;;;;;;;5025108;28;19925;-69
2021/08/22 11:22:15;;;;;;;;;;;;;;;;;;5022745;28;19932;-69
2021/08/22 11:24:42;;;;;;;;;;;;;;;;;;5023523;28;19925;-70
2021/08/22 11:27:09;;;;;;;;;;;;;;;;;;5027276;28;20312;-66
2021/08/22 11:29:36;;;;;;;;;;;;;;;;;;5024260;28;20281;-68
2021/08/22 11:32:03;;;;;;;;;;;;;;;;;;5025226;28;19925;-67
2021/08/22 11:34:30;;;;;;;;;;;;;;;;;;5027064;28;20002;-68
2021/08/22 11:36:57;;;;;;;;;;;;;;;;;;5027143;28;19933;-66
2021/08/22 11:39:24;;;;;;;;;;;;;;;;;;5026692;28;19947;-68
2021/08/22 11:41:51;;;;;;;;;;;;;;;;;;5027477;28;19925;-68
2021/08/22 11:44:18;;;;;;;;;;;;;;;;;;5026383;28;19925;-66
2021/08/22 11:46:45;;;;;;;;;;;;;;;;;;5028545;28;20408;-69
2021/08/22 11:49:12;;;;;;;;;;;;;;;;;;5026202;28;19983;-67
2021/08/22 11:51:39;;;;;;;;;;;;;;;;;;5025296;28;19925;-67
2021/08/22 11:54:05;;;;;;;;;;;;;;;;;;5029299;28;19925;-68
2021/08/22 11:56:32;;;;;;;;;;;;;;;;;;5026407;28;19931;-71
2021/08/22 11:58:59;;;;;;;;;;;;;;;;;;5028055;28;20380;-73
2021/08/22 12:01:26;;;;;;;;;;;;;;;;;;5024661;28;20047;-67
2021/08/22 12:03:53;;;;;;;;;;;;;;;;;;5021455;28;19931;-70
2021/08/22 12:06:20;;;;;;;;;;;;;;;;;;5024798;28;19935;-67
2021/08/22 12:08:47;;;;;;;;;;;;;;;;;;5027580;28;19929;-69
2021/08/22 12:11:16;;;;;;;;;;;;;;;;;;5023359;28;19929;-65
2021/08/22 12:13:43;;;;;;;;;;;;;;;;;;5023241;28;20479;-69
2021/08/22 12:16:10;;;;;;;;;;;;;;;;;;5026262;28;19987;-68
2021/08/22 12:18:38;;;;;;;;;;;;;;;;;;5024245;28;19929;-67
2021/08/22 12:21:05;;;;;;;;;;;;;;;;;;5021806;28;20344;-69
2021/08/22 12:23:32;;;;;;;;;;;;;;;;;;5016881;28;19984;-68
2021/08/22 12:25:59;;;;;;;;;;;;;;;;;;5019530;28;20399;-69
2021/08/22 12:28:26;;;;;;;;;;;;;;;;;;5025610;28;19929;-69
2021/08/22 12:30:53;;;;;;;;;;;;;;;;;;5023240;28;19936;-68
2021/08/22 12:33:20;;;;;;;;;;;;;;;;;;5025432;28;19925;-68
2021/08/22 12:35:47;;;;;;;;;;;;;;;;;;5025556;28;19929;-67
2021/08/22 12:38:14;;;;;;;;;;;;;;;;;;5029520;28;19929;-67
2021/08/22 12:40:41;;;;;;;;;;;;;;;;;;5028934;28;19925;-68
2021/08/22 12:43:07;;;;;;;;;;;;;;;;;;5029409;28;19935;-70
2021/08/22 12:45:34;;;;;;;;;;;;;;;;;;5029183;28;19929;-69
2021/08/22 12:48:01;;;;;;;;;;;;;;;;;;5026239;28;19933;-71
2021/08/22 12:50:28;;;;;;;;;;;;;;;;;;5018499;28;19936;-69
2021/08/22 12:52:55;;;;;;;;;;;;;;;;;;5019358;28;21055;-69
2021/08/22 12:55:22;;;;;;;;;;;;;;;;;;5021563;28;20290;-70
2021/08/22 12:57:49;;;;;;;;;;;;;;;;;;5020226;28;19935;-69
2021/08/22 13:00:16;;;;;;;;;;;;;;;;;;5023563;28;19941;-70
2021/08/22 13:02:43;;;;;;;;;;;;;;;;;;5021155;28;19945;-69
2021/08/22 13:05:10;;;;;;;;;;;;;;;;;;5019676;28;19931;-72
2021/08/22 13:07:39;;;;;;;;;;;;;;;;;;5027185;28;20221;-71
2021/08/22 13:10:06;;;;;;;;;;;;;;;;;;5025338;28;19931;-67
2021/08/22 13:12:33;;;;;;;;;;;;;;;;;;5017532;28;19929;-68
2021/08/22 13:15:00;;;;;;;;;;;;;;;;;;5023000;28;20277;-69
2021/08/22 13:17:27;;;;;;;;;;;;;;;;;;5012574;28;19925;-68
2021/08/22 13:19:54;;;;;;;;;;;;;;;;;;5019020;28;19925;-68
2021/08/22 13:22:21;;;;;;;;;;;;;;;;;;5021030;28;19943;-69
2021/08/22 13:24:48;;;;;;;;;;;;;;;;;;5022379;28;19933;-69
2021/08/22 13:27:15;;;;;;;;;;;;;;;;;;5017555;28;19935;-69
2021/08/22 13:29:42;;;;;;;;;;;;;;;;;;5016732;28;19925;-71
2021/08/22 13:32:09;;;;;;;;;;;;;;;;;;5022727;28;20008;-70
2021/08/22 13:34:36;;;;;;;;;;;;;;;;;;5029385;28;20040;-69
2021/08/22 13:37:03;;;;;;;;;;;;;;;;;;5030216;28;19933;-66
2021/08/22 13:39:30;;;;;;;;;;;;;;;;;;5027442;28;19964;-69
2021/08/22 13:41:57;;;;;;;;;;;;;;;;;;5026661;28;20380;-69
2021/08/22 13:44:24;;;;;;;;;;;;;;;;;;5020808;28;19932;-69
2021/08/22 13:46:51;;;;;;;;;;;;;;;;;;5019050;28;20419;-68
2021/08/22 13:49:18;;;;;;;;;;;;;;;;;;5027244;28;20384;-70
2021/08/22 13:51:45;;;;;;;;;;;;;;;;;;5022866;28;20561;-70
2021/08/22 13:54:13;;;;;;;;;;;;;;;;;;5026899;28;19932;-70
2021/08/22 13:56:40;;;;;;;;;;;;;;;;;;5027966;28;19925;-68
2021/08/22 13:59:07;;;;;;;;;;;;;;;;;;5023361;28;19929;-68
2021/08/22 14:01:34;;;;;;;;;;;;;;;;;;5019643;28;19959;-69
2021/08/22 14:04:01;;;;;;;;;;;;;;;;;;5026562;28;19925;-71
2021/08/22 14:06:28;;;;;;;;;;;;;;;;;;5026177;28;19936;-68
2021/08/22 14:08:55;;;;;;;;;;;;;;;;;;5026260;28;19932;-69
2021/08/22 14:11:22;;;;;;;;;;;;;;;;;;5027830;28;19932;-68
2021/08/22 14:13:49;;;;;;;;;;;;;;;;;;5026250;28;19933;-71
2021/08/22 14:16:16;;;;;;;;;;;;;;;;;;5026981;28;20385;-69
2021/08/22 14:18:43;;;;;;;;;;;;;;;;;;5024451;28;19940;-71
2021/08/22 14:21:10;;;;;;;;;;;;;;;;;;5029193;28;19931;-67
2021/08/22 14:23:37;;;;;;;;;;;;;;;;;;5028982;28;19925;-69
2021/08/22 14:26:03;;;;;;;;;;;;;;;;;;5029402;28;19925;-67
2021/08/22 14:28:31;;;;;;;;;;;;;;;;;;5031352;28;19933;-67
2021/08/22 14:30:58;;;;;;;;;;;;;;;;;;5030826;28;19968;-67
2021/08/22 14:33:25;;;;;;;;;;;;;;;;;;5029084;28;19979;-68
2021/08/22 14:35:52;;;;;;;;;;;;;;;;;;5029878;28;19925;-68
2021/08/22 14:38:18;;;;;;;;;;;;;;;;;;5031758;28;19932;-70
2021/08/22 14:40:46;;;;;;;;;;;;;;;;;;5026471;28;19931;-70
2021/08/22 14:43:13;;;;;;;;;;;;;;;;;;5027101;28;19929;-68
2021/08/22 14:45:40;;;;;;;;;;;;;;;;;;5029874;28;20352;-68
2021/08/22 14:48:08;;;;;;;;;;;;;;;;;;5028318;28;19979;-70
2021/08/22 14:50:36;;;;;;;;;;;;;;;;;;5028627;28;20117;-67
2021/08/22 14:53:03;;;;;;;;;;;;;;;;;;5028288;28;19925;-68
2021/08/22 14:55:29;;;;;;;;;;;;;;;;;;5029849;28;19925;-67
2021/08/22 14:57:56;;;;;;;;;;;;;;;;;;5026457;28;19976;-70
2021/08/22 15:00:23;;;;;;;;;;;;;;;;;;5025233;28;19925;-67
2021/08/22 15:02:50;;;;;;;;;;;;;;;;;;5027114;28;19931;-68
2021/08/22 15:05:17;;;;;;;;;;;;;;;;;;5028616;28;19929;-67
2021/08/22 15:07:44;;;;;;;;;;;;;;;;;;5027069;28;19933;-69
2021/08/22 15:10:11;;;;;;;;;;;;;;;;;;5025981;28;19925;-67
2021/08/22 15:12:38;;;;;;;;;;;;;;;;;;5028468;28;19929;-69
2021/08/22 15:15:05;;;;;;;;;;;;;;;;;;5026244;28;19936;-69
2021/08/22 15:17:32;;;;;;;;;;;;;;;;;;5024235;28;19931;-67
2021/08/22 15:19:59;;;;;;;;;;;;;;;;;;5022842;28;19934;-67
2021/08/22 15:22:26;;;;;;;;;;;;;;;;;;5022886;28;19935;-67
2021/08/22 15:24:53;;;;;;;;;;;;;;;;;;5026596;28;20024;-67
2021/08/22 15:27:20;;;;;;;;;;;;;;;;;;5027055;28;19925;-69
2021/08/22 15:29:47;;;;;;;;;;;;;;;;;;5020687;28;20482;-72
2021/08/22 15:32:14;;;;;;;;;;;;;;;;;;5018340;28;20026;-69
2021/08/22 15:34:42;;;;;;;;;;;;;;;;;;5023755;28;20396;-68
2021/08/22 15:37:09;;;;;;;;;;;;;;;;;;5023750;28;20379;-70
2021/08/22 15:39:36;;;;;;;;;;;;;;;;;;5030090;28;19972;-67
2021/08/22 15:42:03;;;;;;;;;;;;;;;;;;5023403;28;20063;-67
2021/08/22 15:44:30;;;;;;;;;;;;;;;;;;5013680;28;19929;-66
2021/08/22 15:46:57;;;;;;;;;;;;;;;;;;5011536;28;20452;-67
2021/08/22 15:49:24;;;;;;;;;;;;;;;;;;5010683;28;19933;-68
2021/08/22 15:51:51;;;;;;;;;;;;;;;;;;5014878;28;20040;-68
2021/08/22 15:54:18;;;;;;;;;;;;;;;;;;5008797;28;19933;-67
2021/08/22 15:56:45;;;;;;;;;;;;;;;;;;5009877;28;19925;-69
2021/08/22 15:59:12;;;;;;;;;;;;;;;;;;5014384;28;19935;-69
2021/08/22 16:01:39;;;;;;;;;;;;;;;;;;5009892;28;19937;-68
2021/08/22 16:04:06;;;;;;;;;;;;;;;;;;5009522;28;20619;-68
2021/08/22 16:06:33;;;;;;;;;;;;;;;;;;5016524;28;19932;-69
2021/08/22 16:09:00;;;;;;;;;;;;;;;;;;5012395;28;19937;-68
2021/08/22 16:11:27;;;;;;;;;;;;;;;;;;5010146;28;19940;-68
2021/08/22 16:13:54;;;;;;;;;;;;;;;;;;5010369;28;20345;-66
2021/08/22 16:16:21;;;;;;;;;;;;;;;;;;5011561;28;19933;-66
2021/08/22 16:18:48;;;;;;;;;;;;;;;;;;5010833;28;19933;-67
2021/08/22 16:21:15;;;;;;;;;;;;;;;;;;5008163;28;19930;-68
2021/08/22 16:23:42;;;;;;;;;;;;;;;;;;5014382;28;19933;-68
2021/08/22 16:26:09;;;;;;;;;;;;;;;;;;5016327;28;20313;-69
2021/08/22 16:28:36;;;;;;;;;;;;;;;;;;5024628;28;19968;-67
2021/08/22 16:31:03;;;;;;;;;;;;;;;;;;5019629;28;20016;-69
2021/08/22 16:33:30;;;;;;;;;;;;;;;;;;5011449;28;19929;-68
2021/08/22 16:35:57;;;;;;;;;;;;;;;;;;5008296;28;19936;-68
2021/08/22 16:38:24;;;;;;;;;;;;;;;;;;5009888;28;19933;-69
2021/08/22 16:40:52;;;;;;;;;;;;;;;;;;5014667;28;19988;-67
2021/08/22 16:43:19;;;;;;;;;;;;;;;;;;5021813;28;19925;-68